Time;durP1;ratioP1;P1;durP2;ratioP2;P2;SDS_P1;SDS_P2;PMS_P1;PMS_P2;Temp;Humidity;BMP_temperature;BMP_pressure;BME280_temperature;BME280_humidity;BME280_pressure;Samples;Min_cycle;Max_cycle;Signal;HPM_P1;HPM_P2
2023/07/09 00:00:14;;;;;;;3.75;3.25;;;;;28.90;101592.00;;;;5085654;28;20597;-77
2023/07/09 00:02:42;;;;;;;6.05;3.63;;;;;29.00;101592.00;;;;5086670;28;20277;-77
2023/07/09 00:05:15;;;;;;;5.57;3.85;;;;;28.90;101584.00;;;;5086653;28;20198;-77
2023/07/09 00:07:44;;;;;;;5.50;4.20;;;;;28.90;101586.00;;;;5077681;28;20205;-77
2023/07/09 00:10:16;;;;;;;5.18;4.30;;;;;28.80;101590.00;;;;5080439;28;20194;-77
2023/07/09 00:12:44;;;;;;;5.50;4.03;;;;;28.80;101597.00;;;;5083881;28;20194;-77
2023/07/09 00:15:15;;;;;;;5.15;3.67;;;;;28.80;101594.00;;;;5079506;28;20219;-77
2023/07/09 00:17:43;;;;;;;3.88;3.42;;;;;28.80;101593.00;;;;5091739;28;20313;-77
2023/07/09 00:20:14;;;;;;;4.47;3.92;;;;;28.70;101597.00;;;;5086334;28;20187;-77
2023/07/09 00:22:51;;;;;;;4.60;3.65;;;;;28.80;101601.00;;;;5087672;28;20605;-77
2023/07/09 00:25:20;;;;;;;7.60;4.40;;;;;28.70;101613.00;;;;5072958;28;20934;-77
2023/07/09 00:27:49;;;;;;;4.38;3.45;;;;;28.70;101606.00;;;;5079271;28;20202;-77
2023/07/09 00:30:21;;;;;;;4.45;3.85;;;;;28.60;101605.00;;;;5082823;28;20205;-77
2023/07/09 00:32:49;;;;;;;5.40;4.43;;;;;28.70;101606.00;;;;5082683;28;20288;-77
2023/07/09 00:35:16;;;;;;;6.15;4.63;;;;;28.60;101605.00;;;;5085597;28;20958;-77
2023/07/09 00:37:44;;;;;;;7.07;3.97;;;;;28.60;101605.00;;;;5082532;28;20695;-77
2023/07/09 00:40:18;;;;;;;6.57;4.25;;;;;28.60;101614.00;;;;5073889;28;20207;-77
2023/07/09 00:42:47;;;;;;;7.88;3.72;;;;;28.60;101618.00;;;;5088105;28;20197;-77
2023/07/09 00:45:22;;;;;;;6.07;4.00;;;;;28.50;101619.00;;;;5087128;28;20214;-77
2023/07/09 00:47:53;;;;;;;5.72;3.75;;;;;28.50;101625.00;;;;5090201;28;20201;-77
2023/07/09 00:50:33;;;;;;;6.28;3.92;;;;;28.50;101624.00;;;;5091319;28;20190;-77
2023/07/09 00:53:07;;;;;;;4.68;3.80;;;;;28.50;101625.00;;;;5088445;28;20297;-77
2023/07/09 00:55:38;;;;;;;5.55;4.03;;;;;28.50;101621.00;;;;5071385;28;20226;-77
2023/07/09 00:58:10;;;;;;;9.23;4.97;;;;;28.40;101621.00;;;;5069949;28;20219;-77
2023/07/09 01:00:46;;;;;;;4.13;3.72;;;;;28.40;101619.00;;;;5089813;28;20198;-77
2023/07/09 01:03:23;;;;;;;7.22;4.22;;;;;28.40;101622.00;;;;5085660;28;20252;-77
2023/07/09 01:05:55;;;;;;;6.28;3.85;;;;;28.40;101618.00;;;;5075957;28;20198;-77
2023/07/09 01:08:22;;;;;;;5.32;4.07;;;;;28.40;101625.00;;;;5081486;28;20194;-77
2023/07/09 01:10:49;;;;;;;6.38;4.20;;;;;28.30;101621.00;;;;5073757;28;20195;-77
2023/07/09 01:13:19;;;;;;;4.43;3.90;;;;;28.30;101613.00;;;;5082085;28;20194;-77
2023/07/09 01:15:48;;;;;;;4.82;4.18;;;;;28.30;101618.00;;;;5083454;28;20229;-77
2023/07/09 01:18:16;;;;;;;5.70;4.13;;;;;28.30;101606.00;;;;5086491;28;20225;-77
2023/07/09 01:20:44;;;;;;;5.20;4.05;;;;;28.30;101616.00;;;;5089684;28;20703;-77
2023/07/09 01:23:14;;;;;;;6.35;4.30;;;;;28.30;101615.00;;;;5087541;28;20897;-77
2023/07/09 01:25:45;;;;;;;5.05;3.92;;;;;28.20;101627.00;;;;5087310;28;20280;-77
2023/07/09 01:28:16;;;;;;;9.20;3.88;;;;;28.30;101620.00;;;;5088700;28;20635;-78
2023/07/09 01:30:43;;;;;;;6.72;4.85;;;;;28.20;101625.00;;;;5085362;28;20196;-77
2023/07/09 01:33:11;;;;;;;7.97;4.60;;;;;28.20;101626.00;;;;5075047;28;20230;-78
2023/07/09 01:35:41;;;;;;;5.00;3.72;;;;;28.20;101622.00;;;;5088761;28;20205;-76
2023/07/09 01:38:09;;;;;;;5.97;4.03;;;;;28.20;101634.00;;;;5087850;28;20252;-77
2023/07/09 01:40:38;;;;;;;6.97;4.75;;;;;28.20;101628.00;;;;5088357;28;20655;-77
2023/07/09 01:43:06;;;;;;;5.97;4.28;;;;;28.20;101629.00;;;;5089490;28;20616;-77
2023/07/09 01:45:35;;;;;;;5.80;4.43;;;;;28.20;101626.00;;;;5083718;28;20214;-77
2023/07/09 01:48:03;;;;;;;5.47;4.38;;;;;28.20;101627.00;;;;5085402;28;20191;-77
2023/07/09 01:50:31;;;;;;;6.53;4.53;;;;;28.20;101629.00;;;;5086614;28;20217;-77
2023/07/09 01:52:58;;;;;;;6.65;5.10;;;;;28.10;101633.00;;;;5084887;28;20202;-77
2023/07/09 01:55:26;;;;;;;5.97;4.63;;;;;28.10;101632.00;;;;5086668;28;20680;-77
2023/07/09 01:57:55;;;;;;;6.10;4.38;;;;;28.10;101634.00;;;;5086289;28;20226;-77
2023/07/09 02:00:22;;;;;;;6.40;3.92;;;;;28.10;101636.00;;;;5080215;28;20206;-77
2023/07/09 02:02:50;;;;;;;6.18;4.45;;;;;28.10;101633.00;;;;5086475;28;20190;-77
2023/07/09 02:05:20;;;;;;;5.88;4.78;;;;;28.10;101637.00;;;;5084845;28;20203;-77
2023/07/09 02:07:48;;;;;;;6.53;4.85;;;;;28.10;101636.00;;;;5074957;28;20680;-77
2023/07/09 02:10:17;;;;;;;7.93;4.07;;;;;28.10;101636.00;;;;5087674;28;20202;-77
2023/07/09 02:12:44;;;;;;;6.55;4.43;;;;;28.00;101633.00;;;;5087743;28;20202;-77
2023/07/09 02:15:13;;;;;;;6.72;4.57;;;;;28.00;101633.00;;;;5084421;28;20214;-77
2023/07/09 02:17:41;;;;;;;6.55;4.80;;;;;28.00;101636.00;;;;5090085;28;20222;-77
2023/07/09 02:20:09;;;;;;;6.32;4.70;;;;;28.00;101634.00;;;;5088815;28;20198;-77
2023/07/09 02:22:37;;;;;;;5.90;4.57;;;;;28.00;101628.00;;;;5087344;28;20201;-78
2023/07/09 02:25:06;;;;;;;6.25;4.53;;;;;28.00;101634.00;;;;5085930;28;20199;-77
2023/07/09 02:27:36;;;;;;;7.15;4.57;;;;;28.00;101625.00;;;;5085774;28;20679;-77
2023/07/09 02:30:04;;;;;;;6.95;4.28;;;;;27.90;101626.00;;;;5084120;28;20198;-77
2023/07/09 02:32:33;;;;;;;5.30;4.45;;;;;27.90;101624.00;;;;5085109;28;20229;-77
2023/07/09 02:35:00;;;;;;;8.07;4.65;;;;;27.90;101622.00;;;;5075508;28;20209;-76
2023/07/09 02:37:28;;;;;;;5.47;4.55;;;;;27.90;101622.00;;;;5086239;28;20229;-77
2023/07/09 02:39:55;;;;;;;4.95;4.13;;;;;27.90;101619.00;;;;5087671;28;20280;-77
2023/07/09 02:42:23;;;;;;;7.55;4.57;;;;;27.90;101621.00;;;;5083166;28;20205;-77
2023/07/09 02:44:51;;;;;;;6.47;4.43;;;;;27.80;101619.00;;;;5080308;28;20202;-77
2023/07/09 02:47:19;;;;;;;5.57;4.47;;;;;27.80;101621.00;;;;5084545;28;20202;-77
2023/07/09 02:49:47;;;;;;;5.32;4.25;;;;;27.80;101622.00;;;;5087926;28;20675;-77
2023/07/09 02:52:15;;;;;;;5.40;3.95;;;;;27.80;101623.00;;;;5087183;28;20201;-77
2023/07/09 02:54:42;;;;;;;7.03;4.28;;;;;27.80;101628.00;;;;5087137;28;20202;-77
2023/07/09 02:57:09;;;;;;;5.05;4.25;;;;;27.80;101637.00;;;;5079486;28;20206;-77
2023/07/09 02:59:37;;;;;;;7.70;4.95;;;;;27.80;101633.00;;;;5086426;28;20198;-77
2023/07/09 03:02:05;;;;;;;8.13;5.65;;;;;27.70;101624.00;;;;5087861;28;20209;-77
2023/07/09 03:04:32;;;;;;;8.60;5.25;;;;;27.70;101625.00;;;;5069115;28;20198;-77
2023/07/09 03:07:01;;;;;;;6.65;4.90;;;;;27.70;101629.00;;;;5068859;28;20198;-77
2023/07/09 03:09:28;;;;;;;5.63;4.53;;;;;27.70;101627.00;;;;5077193;28;20213;-77
2023/07/09 03:11:56;;;;;;;9.30;4.97;;;;;27.70;101625.00;;;;5085343;28;20560;-77
2023/07/09 03:14:23;;;;;;;6.45;4.55;;;;;27.70;101626.00;;;;5076394;28;20220;-76
2023/07/09 03:16:51;;;;;;;7.38;4.97;;;;;27.60;101633.00;;;;5085222;28;20206;-77
2023/07/09 03:19:18;;;;;;;7.00;5.07;;;;;27.60;101627.00;;;;5070601;28;20223;-77
2023/07/09 03:21:45;;;;;;;6.63;4.70;;;;;27.60;101629.00;;;;5088768;28;20266;-77
2023/07/09 03:24:15;;;;;;;7.50;4.43;;;;;27.60;101624.00;;;;5084416;28;20213;-77
2023/07/09 03:26:42;;;;;;;7.57;4.95;;;;;27.60;101639.00;;;;5068380;28;20257;-77
2023/07/09 03:29:09;;;;;;;7.18;5.38;;;;;27.60;101627.00;;;;5068129;28;20207;-77
2023/07/09 03:31:36;;;;;;;7.25;5.07;;;;;27.60;101636.00;;;;5067609;28;20195;-77
2023/07/09 03:34:04;;;;;;;12.73;5.80;;;;;27.60;101628.00;;;;5080951;28;20226;-77
2023/07/09 03:36:32;;;;;;;7.82;5.35;;;;;27.60;101633.00;;;;5067526;28;20599;-77
2023/07/09 03:38:59;;;;;;;8.60;5.78;;;;;27.50;101641.00;;;;5083780;28;20762;-77
2023/07/09 03:41:27;;;;;;;8.73;5.07;;;;;27.50;101631.00;;;;5087947;28;20206;-77
2023/07/09 03:43:55;;;;;;;7.68;5.35;;;;;27.50;101632.00;;;;5083047;28;20218;-77
2023/07/09 03:46:22;;;;;;;6.28;4.63;;;;;27.50;101633.00;;;;5079575;28;20738;-77
2023/07/09 03:48:50;;;;;;;7.70;5.65;;;;;27.50;101634.00;;;;5085437;28;20209;-77
2023/07/09 03:51:18;;;;;;;6.40;5.20;;;;;27.50;101629.00;;;;5068765;28;20236;-77
2023/07/09 03:53:45;;;;;;;6.45;4.93;;;;;27.50;101636.00;;;;5085052;28;20718;-77
2023/07/09 03:56:12;;;;;;;7.72;5.40;;;;;27.50;101631.00;;;;5086677;28;20209;-77
2023/07/09 03:58:41;;;;;;;7.70;5.25;;;;;27.40;101638.00;;;;5086864;28;20601;-77
2023/07/09 04:01:08;;;;;;;6.63;5.55;;;;;27.50;101640.00;;;;5087093;28;20197;-77
2023/07/09 04:03:35;;;;;;;9.32;5.25;;;;;27.50;101637.00;;;;5086300;28;20198;-77
2023/07/09 04:06:03;;;;;;;11.23;5.75;;;;;27.50;101640.00;;;;5077419;28;20198;-77
2023/07/09 04:08:30;;;;;;;6.22;5.28;;;;;27.50;101640.00;;;;5081978;28;20194;-77
2023/07/09 04:11:02;;;;;;;6.38;4.75;;;;;27.40;101635.00;;;;5085252;28;20202;-77
2023/07/09 04:13:29;;;;;;;7.38;5.15;;;;;27.50;101634.00;;;;5081217;28;20198;-77
2023/07/09 04:15:58;;;;;;;7.35;4.97;;;;;27.40;101635.00;;;;5086300;28;20210;-77
2023/07/09 04:18:26;;;;;;;6.97;4.82;;;;;27.50;101639.00;;;;5086533;28;20698;-77
2023/07/09 04:20:53;;;;;;;10.23;5.30;;;;;27.50;101629.00;;;;5091683;28;20193;-77
2023/07/09 04:23:21;;;;;;;12.63;5.68;;;;;27.50;101635.00;;;;5090380;28;20199;-77
2023/07/09 04:25:48;;;;;;;6.72;4.70;;;;;27.50;101632.00;;;;5088038;28;20195;-77
2023/07/09 04:28:16;;;;;;;8.20;5.93;;;;;27.50;101629.00;;;;5078944;28;20198;-77
2023/07/09 04:30:48;;;;;;;8.88;5.05;;;;;27.50;101641.00;;;;5091571;28;20213;-77
2023/07/09 04:33:18;;;;;;;6.53;4.45;;;;;27.50;101632.00;;;;5095549;28;20880;-77
2023/07/09 04:35:45;;;;;;;7.00;5.00;;;;;27.50;101640.00;;;;5078820;28;20640;-77
2023/07/09 04:38:13;;;;;;;7.15;5.10;;;;;27.60;101638.00;;;;5078969;28;20313;-77
2023/07/09 04:40:41;;;;;;;6.35;5.20;;;;;27.60;101643.00;;;;5081680;28;20191;-77
2023/07/09 04:43:08;;;;;;;5.85;4.60;;;;;27.60;101644.00;;;;5082072;28;20571;-77
2023/07/09 04:45:35;;;;;;;7.30;5.22;;;;;27.60;101638.00;;;;5080462;28;20207;-77
2023/07/09 04:48:03;;;;;;;6.10;4.97;;;;;27.60;101638.00;;;;5078983;28;21890;-77
2023/07/09 04:50:32;;;;;;;7.57;4.60;;;;;27.60;101636.00;;;;5082099;28;20334;-77
2023/07/09 04:53:00;;;;;;;8.73;4.72;;;;;27.70;101644.00;;;;5083580;28;20214;-77
2023/07/09 04:55:28;;;;;;;5.50;4.88;;;;;27.70;101634.00;;;;5072097;28;20222;-77
2023/07/09 04:57:55;;;;;;;7.43;5.45;;;;;27.70;101631.00;;;;5084868;28;20305;-77
2023/07/09 05:00:23;;;;;;;7.05;5.07;;;;;27.70;101631.00;;;;5087296;28;20206;-77
2023/07/09 05:02:50;;;;;;;5.53;4.82;;;;;27.80;101622.00;;;;5087338;28;20660;-77
2023/07/09 05:05:17;;;;;;;6.45;5.03;;;;;27.80;101623.00;;;;5086251;28;20206;-77
2023/07/09 05:07:46;;;;;;;9.75;5.18;;;;;27.80;101623.00;;;;5083555;28;20195;-78
2023/07/09 05:10:14;;;;;;;6.15;4.45;;;;;27.90;101621.00;;;;5085849;28;21078;-77
2023/07/09 05:12:50;;;;;;;7.30;5.78;;;;;27.90;101629.00;;;;5083775;28;20202;-77
2023/07/09 05:15:18;;;;;;;6.90;4.80;;;;;28.00;101628.00;;;;5088497;28;20221;-77
2023/07/09 05:17:46;;;;;;;7.15;5.28;;;;;28.00;101628.00;;;;5088488;28;20676;-77
2023/07/09 05:20:14;;;;;;;8.30;4.93;;;;;28.10;101631.00;;;;5089153;28;20253;-77
2023/07/09 05:22:41;;;;;;;6.10;5.07;;;;;28.10;101635.00;;;;5089198;28;20198;-78
2023/07/09 05:25:10;;;;;;;6.82;5.30;;;;;28.20;101627.00;;;;5094801;28;20190;-77
2023/07/09 05:27:38;;;;;;;6.03;5.43;;;;;28.30;101641.00;;;;5086418;28;20210;-77
2023/07/09 05:30:06;;;;;;;7.53;5.10;;;;;28.30;101634.00;;;;5089730;28;20203;-77
2023/07/09 05:32:33;;;;;;;5.47;4.60;;;;;28.40;101631.00;;;;5085859;28;20582;-77
2023/07/09 05:35:01;;;;;;;6.60;4.85;;;;;28.50;101638.00;;;;5083824;28;20216;-77
2023/07/09 05:37:28;;;;;;;7.22;5.38;;;;;28.50;101640.00;;;;5075342;28;20241;-77
2023/07/09 05:39:55;;;;;;;5.22;4.70;;;;;28.60;101631.00;;;;5088281;28;20312;-77
2023/07/09 05:42:24;;;;;;;5.93;5.28;;;;;28.70;101627.00;;;;5075295;28;20194;-78
2023/07/09 05:44:53;;;;;;;7.75;5.72;;;;;28.70;101630.00;;;;5082363;28;20202;-78
2023/07/09 05:47:21;;;;;;;10.60;6.10;;;;;28.80;101627.00;;;;5082787;28;20201;-77
2023/07/09 05:49:50;;;;;;;8.75;6.88;;;;;28.90;101628.00;;;;5081705;28;20207;-78
2023/07/09 05:52:18;;;;;;;10.48;7.68;;;;;29.00;101641.00;;;;5084124;28;20225;-77
2023/07/09 05:54:45;;;;;;;12.70;7.68;;;;;29.10;101635.00;;;;5082198;28;20206;-78
2023/07/09 05:57:13;;;;;;;10.18;7.63;;;;;29.20;101641.00;;;;5086630;28;20194;-78
2023/07/09 05:59:41;;;;;;;10.18;7.95;;;;;29.20;101643.00;;;;5084540;28;20225;-78
2023/07/09 06:02:12;;;;;;;16.80;8.38;;;;;29.30;101647.00;;;;5083390;28;20202;-77
2023/07/09 06:04:40;;;;;;;8.60;7.70;;;;;29.40;101644.00;;;;5084006;28;20198;-77
2023/07/09 06:07:07;;;;;;;9.98;7.68;;;;;29.50;101649.00;;;;5084529;28;20190;-78
2023/07/09 06:09:34;;;;;;;10.45;8.38;;;;;29.60;101644.00;;;;5080179;28;20198;-78
2023/07/09 06:12:02;;;;;;;9.07;8.02;;;;;29.60;101644.00;;;;5080301;28;20206;-78
2023/07/09 06:14:29;;;;;;;10.73;8.45;;;;;29.70;101649.00;;;;5080607;28;20420;-78
2023/07/09 06:16:58;;;;;;;13.10;8.88;;;;;29.80;101644.00;;;;5081398;28;20202;-77
2023/07/09 06:19:25;;;;;;;12.77;9.00;;;;;29.90;101655.00;;;;5076802;28;20223;-77
2023/07/09 06:21:52;;;;;;;10.73;9.43;;;;;30.00;101649.00;;;;5079801;28;20205;-78
2023/07/09 06:24:20;;;;;;;11.80;9.73;;;;;30.10;101653.00;;;;5077488;28;20194;-78
2023/07/09 06:26:47;;;;;;;11.00;8.73;;;;;30.10;101656.00;;;;5082279;28;20206;-78
2023/07/09 06:29:15;;;;;;;14.32;9.55;;;;;30.20;101655.00;;;;5086760;28;20662;-77
2023/07/09 06:31:42;;;;;;;13.13;8.95;;;;;30.30;101659.00;;;;5083406;28;20213;-78
2023/07/09 06:34:11;;;;;;;11.13;8.38;;;;;30.30;101658.00;;;;5076862;28;20319;-77
2023/07/09 06:36:38;;;;;;;9.27;7.70;;;;;30.40;101664.00;;;;5080341;28;20195;-78
2023/07/09 06:39:06;;;;;;;12.00;8.82;;;;;30.50;101670.00;;;;5076653;28;20214;-79
2023/07/09 06:41:38;;;;;;;11.88;9.40;;;;;30.60;101666.00;;;;5077500;28;20386;-78
2023/07/09 06:44:06;;;;;;;9.75;8.05;;;;;30.70;101667.00;;;;5079495;28;20273;-78
2023/07/09 06:46:34;;;;;;;11.27;8.43;;;;;30.80;101668.00;;;;5077746;28;20656;-78
2023/07/09 06:49:01;;;;;;;10.88;8.23;;;;;30.90;101667.00;;;;5078786;28;20580;-77
2023/07/09 06:51:30;;;;;;;10.40;8.43;;;;;30.90;101672.00;;;;5077826;28;20202;-77
2023/07/09 06:53:58;;;;;;;13.23;10.25;;;;;31.00;101663.00;;;;5079078;28;20202;-79
2023/07/09 06:56:25;;;;;;;11.45;8.85;;;;;31.10;101665.00;;;;5082259;28;20201;-79
2023/07/09 06:58:52;;;;;;;9.35;8.35;;;;;31.20;101664.00;;;;5077298;28;20225;-79
2023/07/09 07:01:20;;;;;;;11.88;9.20;;;;;31.30;101667.00;;;;5081386;28;20190;-79
2023/07/09 07:03:47;;;;;;;8.27;7.35;;;;;31.40;101669.00;;;;5081065;28;20205;-80
2023/07/09 07:06:15;;;;;;;10.60;8.32;;;;;31.50;101666.00;;;;5088497;28;20201;-80
2023/07/09 07:08:44;;;;;;;8.60;7.15;;;;;31.60;101679.00;;;;5081074;28;20204;-80
2023/07/09 07:11:11;;;;;;;8.85;7.95;;;;;31.70;101681.00;;;;5085515;28;20221;-81
2023/07/09 07:13:40;;;;;;;11.55;8.77;;;;;31.80;101663.00;;;;5082229;28;20202;-79
2023/07/09 07:16:09;;;;;;;10.88;8.35;;;;;31.90;101670.00;;;;5082281;28;20235;-79
2023/07/09 07:18:36;;;;;;;11.00;8.07;;;;;31.90;101666.00;;;;5083751;28;20220;-79
2023/07/09 07:21:04;;;;;;;11.57;8.63;;;;;32.10;101670.00;;;;5085175;28;20569;-79
2023/07/09 07:23:31;;;;;;;11.63;8.98;;;;;32.10;101666.00;;;;5087812;28;20205;-79
2023/07/09 07:26:00;;;;;;;14.63;8.70;;;;;32.20;101665.00;;;;5084615;28;20201;-79
2023/07/09 07:28:27;;;;;;;9.50;8.27;;;;;32.30;101664.00;;;;5079418;28;20204;-79
2023/07/09 07:31:07;;;;;;;9.77;7.88;;;;;32.30;101658.00;;;;5080032;28;20194;-79
2023/07/09 07:33:34;;;;;;;9.40;7.78;;;;;32.50;101663.00;;;;5081455;28;20225;-80
2023/07/09 07:36:04;;;;;;;9.38;7.15;;;;;32.60;101666.00;;;;5083911;28;20190;-79
2023/07/09 07:38:31;;;;;;;9.23;7.03;;;;;32.70;101664.00;;;;5082669;28;20204;-79
2023/07/09 07:41:00;;;;;;;9.07;7.88;;;;;32.70;101664.00;;;;5087302;28;20197;-79
2023/07/09 07:43:28;;;;;;;9.23;6.72;;;;;32.80;101655.00;;;;5086026;28;20674;-79
2023/07/09 07:45:55;;;;;;;11.27;7.32;;;;;32.90;101664.00;;;;5084766;28;20209;-79
2023/07/09 07:48:22;;;;;;;8.20;7.10;;;;;33.00;101665.00;;;;5085842;28;20839;-79
2023/07/09 07:50:49;;;;;;;10.23;7.95;;;;;33.20;101665.00;;;;5090305;28;20201;-80
2023/07/09 07:53:17;;;;;;;8.93;7.18;;;;;33.20;101665.00;;;;5089471;28;20201;-81
2023/07/09 07:55:46;;;;;;;7.30;6.25;;;;;33.30;101662.00;;;;5084941;28;20201;-79
2023/07/09 07:58:15;;;;;;;7.90;6.10;;;;;33.40;101655.00;;;;5088509;28;20255;-80
2023/07/09 08:00:42;;;;;;;8.65;6.70;;;;;33.60;101660.00;;;;5080592;28;20233;-80
2023/07/09 08:03:09;;;;;;;9.50;6.10;;;;;33.70;101655.00;;;;5089070;28;20198;-82
2023/07/09 08:05:36;;;;;;;7.40;5.18;;;;;33.80;101661.00;;;;5084854;28;20198;-80
2023/07/09 08:08:04;;;;;;;8.98;6.18;;;;;33.90;101661.00;;;;5089488;28;20189;-81
2023/07/09 08:10:31;;;;;;;5.82;4.82;;;;;34.00;101664.00;;;;5091519;28;20210;-81
2023/07/09 08:12:58;;;;;;;11.77;5.60;;;;;34.10;101666.00;;;;5088447;28;20197;-81
2023/07/09 08:15:28;;;;;;;12.48;5.55;;;;;34.20;101664.00;;;;5093964;28;20675;-80
2023/07/09 08:17:55;;;;;;;7.28;5.82;;;;;34.40;101676.00;;;;5087398;28;20581;-82
2023/07/09 08:20:23;;;;;;;7.35;5.38;;;;;34.50;101670.00;;;;5090678;28;20225;-82
2023/07/09 08:22:50;;;;;;;7.65;5.13;;;;;34.50;101671.00;;;;5083667;28;20205;-80
2023/07/09 08:25:17;;;;;;;7.60;5.30;;;;;34.60;101669.00;;;;5088759;28;20190;-81
2023/07/09 08:27:45;;;;;;;7.57;5.60;;;;;34.70;101670.00;;;;5088922;28;20209;-80
2023/07/09 08:30:12;;;;;;;9.05;5.72;;;;;34.80;101670.00;;;;5085897;28;20201;-80
2023/07/09 08:32:41;;;;;;;7.25;5.32;;;;;34.80;101668.00;;;;5089098;28;20766;-78
2023/07/09 08:35:11;;;;;;;7.10;5.68;;;;;34.90;101662.00;;;;5087065;28;20205;-79
2023/07/09 08:37:39;;;;;;;7.57;6.30;;;;;35.00;101664.00;;;;5088438;28;20278;-80
2023/07/09 08:40:10;;;;;;;7.53;6.05;;;;;35.10;101660.00;;;;5083962;28;20253;-81
2023/07/09 08:42:43;;;;;;;9.73;6.90;;;;;35.10;101661.00;;;;5089976;28;20197;-80
2023/07/09 08:45:31;;;;;;;7.43;6.47;;;;;35.10;101654.00;;;;5086265;28;20722;-79
2023/07/09 08:48:05;;;;;;;8.23;7.00;;;;;35.30;101653.00;;;;5089661;28;20220;-80
2023/07/09 08:50:38;;;;;;;9.05;6.97;;;;;35.40;101660.00;;;;5084110;28;20254;-81
2023/07/09 08:53:10;;;;;;;8.65;7.57;;;;;35.50;101656.00;;;;5082583;28;20218;-79
2023/07/09 08:55:40;;;;;;;7.03;5.47;;;;;35.60;101653.00;;;;5085381;28;20198;-80
2023/07/09 08:58:15;;;;;;;6.57;5.72;;;;;35.60;101650.00;;;;5081336;28;20199;-80
2023/07/09 09:00:48;;;;;;;7.47;5.90;;;;;35.70;101657.00;;;;5081060;28;20225;-79
2023/07/09 09:03:38;;;;;;;7.28;5.72;;;;;35.80;101661.00;;;;5087989;28;20198;-80
2023/07/09 09:06:12;;;;;;;7.05;6.13;;;;;35.80;101658.00;;;;5085209;28;20194;-79
2023/07/09 09:08:44;;;;;;;8.27;5.47;;;;;36.00;101663.00;;;;5090603;28;20181;-79
2023/07/09 09:11:21;;;;;;;7.85;5.43;;;;;36.10;101657.00;;;;5088132;28;20198;-79
2023/07/09 09:13:51;;;;;;;7.43;5.60;;;;;36.20;101663.00;;;;5089281;28;20284;-79
2023/07/09 09:16:25;;;;;;;5.72;4.78;;;;;36.30;101656.00;;;;5090484;28;20260;-79
2023/07/09 09:18:59;;;;;;;8.27;5.90;;;;;36.40;101655.00;;;;5091090;28;20197;-78
2023/07/09 09:21:32;;;;;;;7.00;5.57;;;;;36.60;101651.00;;;;5086729;28;20201;-79
2023/07/09 09:24:12;;;;;;;6.25;5.50;;;;;36.70;101653.00;;;;5089580;28;20210;-79
2023/07/09 09:26:44;;;;;;;9.95;7.65;;;;;36.80;101643.00;;;;5086182;28;20480;-80
2023/07/09 09:29:14;;;;;;;6.63;5.70;;;;;37.00;101647.00;;;;5089064;28;20213;-80
2023/07/09 09:31:43;;;;;;;8.05;5.80;;;;;37.10;101651.00;;;;5084344;28;20194;-80
2023/07/09 09:34:21;;;;;;;7.18;6.40;;;;;37.00;101650.00;;;;5086650;28;20214;-79
2023/07/09 09:36:48;;;;;;;6.65;5.43;;;;;37.20;101643.00;;;;5087648;28;20216;-80
2023/07/09 09:39:17;;;;;;;7.80;6.40;;;;;37.20;101644.00;;;;5087532;28;20198;-80
2023/07/09 09:41:45;;;;;;;6.55;5.47;;;;;37.30;101645.00;;;;5086713;28;20189;-80
2023/07/09 09:44:19;;;;;;;6.63;5.22;;;;;37.30;101645.00;;;;5085761;28;20586;-81
2023/07/09 09:46:48;;;;;;;8.18;5.78;;;;;37.40;101644.00;;;;5088277;28;20193;-82
2023/07/09 09:49:16;;;;;;;7.18;5.60;;;;;37.40;101639.00;;;;5088699;28;20198;-81
2023/07/09 09:51:47;;;;;;;6.57;5.70;;;;;37.50;101638.00;;;;5084362;28;20193;-80
2023/07/09 09:54:22;;;;;;;6.47;5.38;;;;;37.50;101635.00;;;;5088739;28;20205;-81
2023/07/09 09:56:50;;;;;;;7.65;5.68;;;;;37.60;101634.00;;;;5088894;28;20193;-81
2023/07/09 09:59:21;;;;;;;6.47;5.53;;;;;37.60;101630.00;;;;5086887;28;20198;-80
2023/07/09 10:01:57;;;;;;;7.07;5.78;;;;;37.70;101638.00;;;;5077163;28;20284;-80
2023/07/09 10:04:24;;;;;;;7.38;5.45;;;;;37.80;101629.00;;;;5087533;28;20631;-80
2023/07/09 10:06:57;;;;;;;11.20;5.28;;;;;37.90;101633.00;;;;5075275;28;20210;-80
2023/07/09 10:09:35;;;;;;;6.50;5.65;;;;;38.00;101629.00;;;;5069132;28;20276;-80
2023/07/09 10:12:12;;;;;;;7.28;5.30;;;;;38.00;101627.00;;;;5079161;28;20194;-81
2023/07/09 10:14:48;;;;;;;6.47;5.00;;;;;38.10;101607.00;;;;5091321;28;20204;-80
2023/07/09 10:17:23;;;;;;;6.57;5.38;;;;;38.10;101615.00;;;;5074226;28;20690;-80
2023/07/09 10:19:57;;;;;;;5.30;4.78;;;;;38.20;101604.00;;;;5085549;28;20220;-83
2023/07/09 10:22:40;;;;;;;5.60;5.00;;;;;38.30;101609.00;;;;5083141;28;20277;-80
2023/07/09 10:25:21;;;;;;;10.23;5.57;;;;;38.30;101614.00;;;;5084728;28;20567;-80
2023/07/09 10:28:06;;;;;;;8.00;4.03;;;;;38.30;101616.00;;;;5083564;28;20201;-80
2023/07/09 10:30:47;;;;;;;5.00;4.10;;;;;38.30;101612.00;;;;5086487;28;20193;-79
2023/07/09 10:33:22;;;;;;;6.85;4.45;;;;;38.30;101620.00;;;;5087623;28;20244;-81
2023/07/09 10:35:57;;;;;;;5.75;4.25;;;;;38.30;101619.00;;;;5083562;28;20201;-82
2023/07/09 10:38:46;;;;;;;4.72;4.20;;;;;38.30;101616.00;;;;5085248;28;20198;-81
2023/07/09 10:41:14;;;;;;;4.57;4.13;;;;;38.40;101628.00;;;;5087283;28;20222;-81
2023/07/09 10:43:46;;;;;;;7.32;4.00;;;;;38.40;101629.00;;;;5084289;28;20213;-81
2023/07/09 10:46:17;;;;;;;4.07;3.70;;;;;38.40;101636.00;;;;5086477;28;20201;-81
2023/07/09 10:48:47;;;;;;;4.43;3.85;;;;;38.40;101634.00;;;;5087436;28;20201;-81
2023/07/09 10:51:22;;;;;;;5.72;4.38;;;;;38.40;101631.00;;;;5080587;28;20216;-81
2023/07/09 10:53:56;;;;;;;6.40;4.38;;;;;38.40;101638.00;;;;5068305;28;20190;-81
2023/07/09 10:56:26;;;;;;;6.10;4.75;;;;;38.50;101636.00;;;;5086959;28;20656;-81
2023/07/09 10:58:59;;;;;;;5.75;4.70;;;;;38.40;101643.00;;;;5088257;28;20217;-81
2023/07/09 11:01:32;;;;;;;5.38;4.00;;;;;38.40;101644.00;;;;5087543;28;20225;-81
2023/07/09 11:04:05;;;;;;;9.38;4.85;;;;;38.30;101654.00;;;;5096738;28;20694;-81
2023/07/09 11:06:38;;;;;;;4.88;4.38;;;;;38.30;101656.00;;;;5107933;28;20284;-81
2023/07/09 11:09:15;;;;;;;6.13;4.50;;;;;38.20;101656.00;;;;5105246;28;20201;-81
2023/07/09 11:11:48;;;;;;;5.05;4.50;;;;;38.20;101638.00;;;;5076184;28;20197;-81
2023/07/09 11:14:26;;;;;;;4.68;4.28;;;;;38.20;101634.00;;;;5084092;28;20198;-81
2023/07/09 11:16:56;;;;;;;5.80;4.53;;;;;38.20;101636.00;;;;5088830;28;20220;-81
2023/07/09 11:19:24;;;;;;;6.97;4.97;;;;;38.30;101634.00;;;;5087987;28;20205;-81
2023/07/09 11:22:07;;;;;;;6.32;5.68;;;;;38.20;101627.00;;;;5087626;28;20232;-81
2023/07/09 11:24:46;;;;;;;7.13;5.07;;;;;38.30;101616.00;;;;5075276;28;20212;-81
2023/07/09 11:27:22;;;;;;;10.18;5.85;;;;;38.30;101618.00;;;;5086490;28;20293;-81
2023/07/09 11:29:57;;;;;;;5.28;4.78;;;;;38.40;101618.00;;;;5086738;28;20987;-81
2023/07/09 11:32:25;;;;;;;6.55;4.20;;;;;38.40;101619.00;;;;5086127;28;20590;-81
2023/07/09 11:34:53;;;;;;;3.97;3.58;;;;;38.40;101625.00;;;;5087030;28;20289;-81
2023/07/09 11:37:26;;;;;;;5.70;3.60;;;;;38.30;101624.00;;;;5087421;28;20197;-81
2023/07/09 11:39:54;;;;;;;6.57;4.18;;;;;38.30;101629.00;;;;5069603;28;20209;-81
2023/07/09 11:42:31;;;;;;;4.50;3.33;;;;;38.20;101634.00;;;;5077026;28;20677;-81
2023/07/09 11:45:05;;;;;;;3.53;3.22;;;;;38.30;101624.00;;;;5088527;28;20201;-81
2023/07/09 11:47:37;;;;;;;4.35;3.28;;;;;38.30;101629.00;;;;5088240;28;20665;-80
2023/07/09 11:50:06;;;;;;;3.42;3.10;;;;;38.30;101625.00;;;;5087243;28;20194;-80
2023/07/09 11:52:38;;;;;;;3.90;3.30;;;;;38.30;101636.00;;;;5087124;28;20221;-80
2023/07/09 11:55:25;;;;;;;5.32;3.45;;;;;38.20;101633.00;;;;5087348;28;20210;-81
2023/07/09 11:57:55;;;;;;;6.05;3.60;;;;;38.30;101642.00;;;;5087733;28;20198;-80
2023/07/09 12:00:22;;;;;;;4.43;3.88;;;;;38.30;101647.00;;;;5085654;28;20220;-81
2023/07/09 12:02:50;;;;;;;5.53;3.10;;;;;38.20;101653.00;;;;5086661;28;20194;-80
2023/07/09 12:05:22;;;;;;;6.15;3.55;;;;;38.20;101652.00;;;;5085871;28;20194;-80
2023/07/09 12:07:49;;;;;;;4.28;3.50;;;;;38.20;101658.00;;;;5087255;28;20189;-80
2023/07/09 12:10:23;;;;;;;5.30;3.10;;;;;38.00;101658.00;;;;5086222;28;20690;-81
2023/07/09 12:12:54;;;;;;;7.25;3.55;;;;;38.10;101661.00;;;;5102992;28;20201;-80
2023/07/09 12:15:25;;;;;;;7.70;3.80;;;;;38.00;101667.00;;;;5104287;28;20695;-80
2023/07/09 12:17:57;;;;;;;3.75;3.20;;;;;37.90;101665.00;;;;5082127;28;20202;-81